Hayes Center, Nebraska
Current Conditions -  °F | °C
As of 6:53 PM on Monday 24 Nov 2014 (Local Time) from KIML Reporting Station
Clear Clear  
Wind Chill: 25°   Ceiling: Unl
Heat Index: 34°   Visibility: 10mi
Dew Point: 28°   Wind: 12mph
Humidity: 79%   Direction: 310°NW
Pressure: 30.07"   Gusts: NA
Location:  40.51°N, 101.02°W
Report Text: KIML 250053Z AUTO 31010KT 10SM CLR 01/M02 A3007 RMK AO2 SLP211 T00111022
Loading
Personal Weather Stations






























Interactive Weather Map New forecast layout! Learn more

10-Day Weather Forecast

Advertisements
Track Severe Weather on mobile